CheckWX is a tool to help pilots better visualize weather data.  It is not intended as a substitute for an official pre-flight weather briefing.

02:56:13 UTC

KELM METAR
Elmira / Corning Regional Airport
Elmira/Corning, New York, USA
Current

39 mins ago

KELM 230217Z 00000KT 10SM BKN014 BKN019 OVC036 19/17 A2986 RMK AO2 T01890172
Observed
Jul-23 @ 02:17 UTC
Visibility
10 SM
Flight Rules
MVFR
Cloud Levels
  • Broken at 1,400' AGL
  • Broken at 1,900' AGL
  • Overcast at 3,600' AGL
Temperature
19°C / 66°F
Dewpoint
17°C / 63°F
Humidity
88%
Altimeter
29.86" Hg
Pressure
1011.22 hPa
Previous

51 mins ago

KELM 230205Z 00000KT 10SM BKN017 OVC036 19/17 A2986 RMK AO2 T01890167
Observed
Jul-23 @ 02:05 UTC
Visibility
10 SM
Flight Rules
MVFR
Cloud Levels
  • Broken at 1,700' AGL
  • Overcast at 3,600' AGL
Temperature
19°C / 66°F
Dewpoint
17°C / 63°F
Humidity
88%
Altimeter
29.86" Hg
Pressure
1011.22 hPa
Previous

1 hour ago

KELM 230153Z 00000KT 10SM SCT014 OVC032 19/17 A2986 RMK AO2 SLP108 T01890167
Observed
Jul-23 @ 01:53 UTC
Visibility
10 SM
Flight Rules
VFR
Cloud Levels
  • Scattered at 1,400' AGL
  • Overcast at 3,200' AGL
Temperature
19°C / 66°F
Dewpoint
17°C / 63°F
Humidity
88%
Altimeter
29.86" Hg
Pressure
1011.22 hPa